sensor_id;sensor_type;location;lat;lon;timestamp;pressure;altitude;pressure_sealevel;temperature;humidity
24610;BME280;12758;47.890;11.694;2023-03-18T00:01:15;93449.09;;;8.61;100.00
24610;BME280;12758;47.890;11.694;2023-03-18T00:03:41;93440.84;;;8.57;100.00
24610;BME280;12758;47.890;11.694;2023-03-18T00:06:09;93443.19;;;8.59;100.00
24610;BME280;12758;47.890;11.694;2023-03-18T00:08:36;93449.09;;;8.61;100.00
24610;BME280;12758;47.890;11.694;2023-03-18T00:11:03;93451.16;;;8.64;100.00
24610;BME280;12758;47.890;11.694;2023-03-18T00:13:31;93449.09;;;8.61;100.00
24610;BME280;12758;47.890;11.694;2023-03-18T00:15:58;93444.13;;;8.63;100.00
24610;BME280;12758;47.890;11.694;2023-03-18T00:18:24;93458.75;;;8.71;100.00
24610;BME280;12758;47.890;11.694;2023-03-18T00:20:50;93459.53;;;8.71;100.00
24610;BME280;12758;47.890;11.694;2023-03-18T00:23:16;93458.28;;;8.69;100.00
24610;BME280;12758;47.890;11.694;2023-03-18T00:25:42;93454.94;;;8.63;100.00
24610;BME280;12758;47.890;11.694;2023-03-18T00:28:11;93464.94;;;8.71;100.00
24610;BME280;12758;47.890;11.694;2023-03-18T00:30:38;93455.09;;;8.67;100.00
24610;BME280;12758;47.890;11.694;2023-03-18T00:33:06;93464.94;;;8.71;100.00
24610;BME280;12758;47.890;11.694;2023-03-18T00:35:33;93458.59;;;8.67;100.00
24610;BME280;12758;47.890;11.694;2023-03-18T00:38:00;93465.13;;;8.66;100.00
24610;BME280;12758;47.890;11.694;2023-03-18T00:40:29;93457.78;;;8.67;100.00
24610;BME280;12758;47.890;11.694;2023-03-18T00:43:07;93458.31;;;8.60;100.00
24610;BME280;12758;47.890;11.694;2023-03-18T00:45:35;93464.69;;;8.55;100.00
24610;BME280;12758;47.890;11.694;2023-03-18T00:48:03;93468.69;;;8.58;100.00
24610;BME280;12758;47.890;11.694;2023-03-18T00:50:29;93459.16;;;8.52;100.00
24610;BME280;12758;47.890;11.694;2023-03-18T00:52:55;93466.47;;;8.51;100.00
24610;BME280;12758;47.890;11.694;2023-03-18T00:55:21;93477.31;;;8.43;100.00
24610;BME280;12758;47.890;11.694;2023-03-18T00:57:47;93473.47;;;8.44;100.00
24610;BME280;12758;47.890;11.694;2023-03-18T01:00:14;93471.91;;;8.43;100.00
24610;BME280;12758;47.890;11.694;2023-03-18T01:02:41;93474.44;;;8.48;100.00
24610;BME280;12758;47.890;11.694;2023-03-18T01:05:10;93475.09;;;8.45;100.00
24610;BME280;12758;47.890;11.694;2023-03-18T01:07:36;93471.75;;;8.39;100.00
24610;BME280;12758;47.890;11.694;2023-03-18T01:10:02;93475.88;;;8.45;100.00
24610;BME280;12758;47.890;11.694;2023-03-18T01:12:29;93478.56;;;8.36;100.00
24610;BME280;12758;47.890;11.694;2023-03-18T01:14:55;93476.03;;;8.31;100.00
24610;BME280;12758;47.890;11.694;2023-03-18T01:17:20;93478.44;;;8.33;100.00
24610;BME280;12758;47.890;11.694;2023-03-18T01:19:46;93471.75;;;8.30;100.00
24610;BME280;12758;47.890;11.694;2023-03-18T01:22:14;93472.88;;;8.29;100.00
24610;BME280;12758;47.890;11.694;2023-03-18T01:24:41;93477.81;;;8.27;100.00
24610;BME280;12758;47.890;11.694;2023-03-18T01:27:07;93482.13;;;8.28;100.00
24610;BME280;12758;47.890;11.694;2023-03-18T01:29:33;93482.75;;;8.25;100.00
24610;BME280;12758;47.890;11.694;2023-03-18T01:31:59;93480.50;;;8.27;100.00
24610;BME280;12758;47.890;11.694;2023-03-18T01:34:26;93478.94;;;8.26;100.00
24610;BME280;12758;47.890;11.694;2023-03-18T01:36:52;93475.09;;;8.27;100.00
24610;BME280;12758;47.890;11.694;2023-03-18T01:39:18;93478.94;;;8.26;100.00
24610;BME280;12758;47.890;11.694;2023-03-18T01:41:45;93473.53;;;8.26;100.00
24610;BME280;12758;47.890;11.694;2023-03-18T01:44:13;93471.78;;;8.22;100.00
24610;BME280;12758;47.890;11.694;2023-03-18T01:46:41;93470.34;;;8.24;100.00
24610;BME280;12758;47.890;11.694;2023-03-18T01:49:10;93471.13;;;8.25;100.00
24610;BME280;12758;47.890;11.694;2023-03-18T01:51:39;93472.09;;;8.20;100.00
24610;BME280;12758;47.890;11.694;2023-03-18T01:54:06;93472.66;;;7.87;100.00
24610;BME280;12758;47.890;11.694;2023-03-18T01:56:34;93476.44;;;7.86;100.00
24610;BME280;12758;47.890;11.694;2023-03-18T01:59:01;93475.66;;;8.03;100.00
24610;BME280;12758;47.890;11.694;2023-03-18T02:01:30;93475.03;;;7.89;100.00
24610;BME280;12758;47.890;11.694;2023-03-18T02:03:58;93481.22;;;7.89;100.00
24610;BME280;12758;47.890;11.694;2023-03-18T02:06:25;93483.63;;;8.00;100.00
24610;BME280;12758;47.890;11.694;2023-03-18T02:08:51;93481.06;;;8.03;100.00
24610;BME280;12758;47.890;11.694;2023-03-18T02:11:17;93484.06;;;8.02;100.00
24610;BME280;12758;47.890;11.694;2023-03-18T02:13:44;93492.22;;;7.93;100.00
24610;BME280;12758;47.890;11.694;2023-03-18T02:16:13;93488.53;;;7.89;100.00
24610;BME280;12758;47.890;11.694;2023-03-18T02:18:43;93497.75;;;7.97;100.00
24610;BME280;12758;47.890;11.694;2023-03-18T02:21:21;93492.03;;;7.89;100.00
24610;BME280;12758;47.890;11.694;2023-03-18T02:23:54;93499.50;;;7.92;100.00
24610;BME280;12758;47.890;11.694;2023-03-18T02:26:25;93495.50;;;7.99;100.00
24610;BME280;12758;47.890;11.694;2023-03-18T02:28:57;93498.09;;;7.69;100.00
24610;BME280;12758;47.890;11.694;2023-03-18T02:31:25;93494.91;;;7.84;100.00
24610;BME280;12758;47.890;11.694;2023-03-18T02:33:52;93499.81;;;7.91;100.00
24610;BME280;12758;47.890;11.694;2023-03-18T02:36:20;93503.31;;;8.00;100.00
24610;BME280;12758;47.890;11.694;2023-03-18T02:38:47;93499.00;;;8.08;100.00
24610;BME280;12758;47.890;11.694;2023-03-18T02:41:14;93507.44;;;8.06;100.00
24610;BME280;12758;47.890;11.694;2023-03-18T02:43:41;93505.22;;;8.00;100.00
24610;BME280;12758;47.890;11.694;2023-03-18T02:46:19;93507.28;;;8.03;100.00
24610;BME280;12758;47.890;11.694;2023-03-18T02:48:48;93508.56;;;7.97;100.00
24610;BME280;12758;47.890;11.694;2023-03-18T02:51:15;93508.88;;;7.86;100.00
24610;BME280;12758;47.890;11.694;2023-03-18T02:53:42;93509.34;;;7.97;100.00
24610;BME280;12758;47.890;11.694;2023-03-18T02:56:09;93512.22;;;8.01;100.00
24610;BME280;12758;47.890;11.694;2023-03-18T02:58:35;93516.50;;;8.02;100.00
24610;BME280;12758;47.890;11.694;2023-03-18T03:01:02;93525.72;;;8.01;100.00
24610;BME280;12758;47.890;11.694;2023-03-18T03:03:28;93533.00;;;8.09;100.00
24610;BME280;12758;47.890;11.694;2023-03-18T03:05:55;93527.31;;;8.02;100.00
24610;BME280;12758;47.890;11.694;2023-03-18T03:08:21;93537.19;;;7.98;100.00
24610;BME280;12758;47.890;11.694;2023-03-18T03:10:48;93537.81;;;7.94;100.00
24610;BME280;12758;47.890;11.694;2023-03-18T03:13:15;93544.34;;;7.93;100.00
24610;BME280;12758;47.890;11.694;2023-03-18T03:15:41;93542.44;;;8.03;100.00
24610;BME280;12758;47.890;11.694;2023-03-18T03:18:07;93544.16;;;7.99;100.00
24610;BME280;12758;47.890;11.694;2023-03-18T03:20:35;93544.16;;;7.99;100.00
24610;BME280;12758;47.890;11.694;2023-03-18T03:23:03;93545.78;;;8.00;100.00
24610;BME280;12758;47.890;11.694;2023-03-18T03:25:30;93546.22;;;8.02;100.00
24610;BME280;12758;47.890;11.694;2023-03-18T03:27:57;93553.53;;;7.92;100.00
24610;BME280;12758;47.890;11.694;2023-03-18T03:30:23;93551.31;;;7.86;100.00
24610;BME280;12758;47.890;11.694;2023-03-18T03:32:50;93554.34;;;7.93;100.00
24610;BME280;12758;47.890;11.694;2023-03-18T03:35:17;93549.25;;;7.91;100.00
24610;BME280;12758;47.890;11.694;2023-03-18T03:37:44;93547.53;;;7.87;100.00
24610;BME280;12758;47.890;11.694;2023-03-18T03:40:12;93562.28;;;7.89;100.00
24610;BME280;12758;47.890;11.694;2023-03-18T03:42:39;93553.72;;;7.87;100.00
24610;BME280;12758;47.890;11.694;2023-03-18T03:45:07;93549.75;;;7.85;100.00
24610;BME280;12758;47.890;11.694;2023-03-18T03:47:33;93555.94;;;7.85;100.00
24610;BME280;12758;47.890;11.694;2023-03-18T03:49:59;93558.19;;;7.83;100.00
24610;BME280;12758;47.890;11.694;2023-03-18T03:52:25;93555.94;;;7.85;100.00
24610;BME280;12758;47.890;11.694;2023-03-18T03:54:52;93564.66;;;7.82;100.00
24610;BME280;12758;47.890;11.694;2023-03-18T03:57:19;93564.66;;;7.82;100.00
24610;BME280;12758;47.890;11.694;2023-03-18T03:59:45;93570.25;;;7.77;100.00
24610;BME280;12758;47.890;11.694;2023-03-18T04:02:12;93570.72;;;7.79;100.00
24610;BME280;12758;47.890;11.694;2023-03-18T04:04:38;93566.22;;;7.57;100.00
24610;BME280;12758;47.890;11.694;2023-03-18T04:07:04;93560.06;;;7.74;100.00
24610;BME280;12758;47.890;11.694;2023-03-18T04:09:30;93564.19;;;7.63;100.00
24610;BME280;12758;47.890;11.694;2023-03-18T04:11:59;93570.84;;;7.39;100.00
24610;BME280;12758;47.890;11.694;2023-03-18T04:14:25;93561.94;;;7.47;100.00
24610;BME280;12758;47.890;11.694;2023-03-18T04:16:51;93566.53;;;7.47;100.00
24610;BME280;12758;47.890;11.694;2023-03-18T04:19:17;93564.50;;;7.53;100.00
24610;BME280;12758;47.890;11.694;2023-03-18T04:21:43;93563.22;;;7.59;100.00
24610;BME280;12758;47.890;11.694;2023-03-18T04:24:10;93568.31;;;7.52;100.00
24610;BME280;12758;47.890;11.694;2023-03-18T04:26:37;93569.91;;;7.53;100.00
24610;BME280;12758;47.890;11.694;2023-03-18T04:29:03;93568.63;;;7.59;100.00
24610;BME280;12758;47.890;11.694;2023-03-18T04:31:29;93579.75;;;7.66;100.00
24610;BME280;12758;47.890;11.694;2023-03-18T04:33:56;93576.75;;;7.67;100.00
24610;BME280;12758;47.890;11.694;2023-03-18T04:36:24;93572.47;;;7.58;100.00
24610;BME280;12758;47.890;11.694;2023-03-18T04:38:50;93573.38;;;7.44;100.00
24610;BME280;12758;47.890;11.694;2023-03-18T04:41:16;93573.72;;;7.52;100.00
24610;BME280;12758;47.890;11.694;2023-03-18T04:43:42;93570.84;;;7.39;100.00
24610;BME280;12758;47.890;11.694;2023-03-18T04:46:10;93573.22;;;7.50;100.00
24610;BME280;12758;47.890;11.694;2023-03-18T04:48:36;93576.25;;;7.57;100.00
24610;BME280;12758;47.890;11.694;2023-03-18T04:51:03;93573.84;;;7.46;100.00
24610;BME280;12758;47.890;11.694;2023-03-18T04:53:29;93576.09;;;7.53;100.00
24610;BME280;12758;47.890;11.694;2023-03-18T04:55:55;93569.91;;;7.53;100.00
24610;BME280;12758;47.890;11.694;2023-03-18T04:58:21;93573.09;;;7.55;100.00
24610;BME280;12758;47.890;11.694;2023-03-18T05:00:48;93570.84;;;7.57;100.00
24610;BME280;12758;47.890;11.694;2023-03-18T05:03:15;93574.34;;;7.66;100.00
24610;BME280;12758;47.890;11.694;2023-03-18T05:05:41;93573.06;;;7.63;100.00
24610;BME280;12758;47.890;11.694;2023-03-18T05:08:07;93577.22;;;7.61;100.00
24610;BME280;12758;47.890;11.694;2023-03-18T05:10:33;93572.44;;;7.66;100.00
24610;BME280;12758;47.890;11.694;2023-03-18T05:12:59;93571.34;;;7.67;100.00
24610;BME280;12758;47.890;11.694;2023-03-18T05:15:26;93572.78;;;7.65;100.00
24610;BME280;12758;47.890;11.694;2023-03-18T05:17:52;93572.94;;;7.68;100.00
24610;BME280;12758;47.890;11.694;2023-03-18T05:20:19;93577.06;;;7.66;100.00
24610;BME280;12758;47.890;11.694;2023-03-18T05:22:45;93564.19;;;7.63;100.00
24610;BME280;12758;47.890;11.694;2023-03-18T05:25:11;93574.81;;;7.59;100.00
24610;BME280;12758;47.890;11.694;2023-03-18T05:27:37;93578.81;;;7.62;100.00
24610;BME280;12758;47.890;11.694;2023-03-18T05:30:04;93577.53;;;7.68;100.00
24610;BME280;12758;47.890;11.694;2023-03-18T05:32:30;93576.56;;;7.64;100.00
24610;BME280;12758;47.890;11.694;2023-03-18T05:34:57;93577.69;;;7.63;100.00
24610;BME280;12758;47.890;11.694;2023-03-18T05:37:23;93578.81;;;7.62;100.00
24610;BME280;12758;47.890;11.694;2023-03-18T05:39:49;93584.03;;;7.67;100.00
24610;BME280;12758;47.890;11.694;2023-03-18T05:42:15;93579.44;;;7.59;100.00
24610;BME280;12758;47.890;11.694;2023-03-18T05:44:42;93580.56;;;7.58;100.00
24610;BME280;12758;47.890;11.694;2023-03-18T05:47:08;93578.94;;;7.57;100.00
24610;BME280;12758;47.890;11.694;2023-03-18T05:49:34;93581.66;;;7.57;100.00
24610;BME280;12758;47.890;11.694;2023-03-18T05:52:01;93581.66;;;7.57;100.00
24610;BME280;12758;47.890;11.694;2023-03-18T05:54:28;93581.66;;;7.57;100.00
24610;BME280;12758;47.890;11.694;2023-03-18T05:56:54;93570.53;;;7.50;100.00
24610;BME280;12758;47.890;11.694;2023-03-18T05:59:21;93581.97;;;7.46;100.00
24610;BME280;12758;47.890;11.694;2023-03-18T06:01:48;93578.13;;;7.47;100.00
24610;BME280;12758;47.890;11.694;2023-03-18T06:04:14;93580.38;;;7.45;100.00
24610;BME280;12758;47.890;11.694;2023-03-18T06:06:42;93574.34;;;7.49;100.00
24610;BME280;12758;47.890;11.694;2023-03-18T06:09:09;93576.25;;;7.48;100.00
24610;BME280;12758;47.890;11.694;2023-03-18T06:11:37;93570.69;;;7.53;100.00
24610;BME280;12758;47.890;11.694;2023-03-18T06:14:05;93579.28;;;7.55;100.00
24610;BME280;12758;47.890;11.694;2023-03-18T06:16:32;93580.06;;;7.56;100.00
24610;BME280;12758;47.890;11.694;2023-03-18T06:18:59;93573.72;;;7.52;100.00
24610;BME280;12758;47.890;11.694;2023-03-18T06:21:25;93585.16;;;7.49;100.00
24610;BME280;12758;47.890;11.694;2023-03-18T06:23:52;93578.28;;;7.51;100.00
24610;BME280;12758;47.890;11.694;2023-03-18T06:26:18;93583.53;;;7.47;100.00
24610;BME280;12758;47.890;11.694;2023-03-18T06:28:45;93582.13;;;7.50;100.00
24610;BME280;12758;47.890;11.694;2023-03-18T06:31:11;93586.72;;;7.50;100.00
24610;BME280;12758;47.890;11.694;2023-03-18T06:33:37;93588.94;;;7.47;100.00
24610;BME280;12758;47.890;11.694;2023-03-18T06:36:05;93587.84;;;7.49;100.00
24610;BME280;12758;47.890;11.694;2023-03-18T06:38:31;93594.34;;;7.47;100.00
24610;BME280;12758;47.890;11.694;2023-03-18T06:40:57;93591.19;;;7.45;100.00
24610;BME280;12758;47.890;11.694;2023-03-18T06:43:24;93592.13;;;7.50;100.00
24610;BME280;12758;47.890;11.694;2023-03-18T06:45:52;93593.09;;;7.54;100.00
24610;BME280;12758;47.890;11.694;2023-03-18T06:48:18;93596.91;;;7.53;100.00
24610;BME280;12758;47.890;11.694;2023-03-18T06:50:44;93586.25;;;7.56;100.00
24610;BME280;12758;47.890;11.694;2023-03-18T06:53:11;93587.84;;;7.57;100.00
24610;BME280;12758;47.890;11.694;2023-03-18T06:55:37;93588.34;;;7.59;100.00
24610;BME280;12758;47.890;11.694;2023-03-18T06:58:03;93589.13;;;7.60;100.00
24610;BME280;12758;47.890;11.694;2023-03-18T07:00:30;93587.38;;;7.64;100.00
24610;BME280;12758;47.890;11.694;2023-03-18T07:02:56;93586.41;;;7.60;100.00
24610;BME280;12758;47.890;11.694;2023-03-18T07:05:23;93588.66;;;7.58;100.00
24610;BME280;12758;47.890;11.694;2023-03-18T07:07:49;93594.34;;;7.47;100.00
24610;BME280;12758;47.890;11.694;2023-03-18T07:10:18;93590.72;;;7.52;100.00
24610;BME280;12758;47.890;11.694;2023-03-18T07:12:44;93593.72;;;7.51;100.00
24610;BME280;12758;47.890;11.694;2023-03-18T07:15:12;93586.72;;;7.50;100.00
24610;BME280;12758;47.890;11.694;2023-03-18T07:17:38;93593.72;;;7.51;100.00
24610;BME280;12758;47.890;11.694;2023-03-18T07:20:06;93590.25;;;7.59;100.00
24610;BME280;12758;47.890;11.694;2023-03-18T07:22:32;93596.28;;;7.56;100.00
24610;BME280;12758;47.890;11.694;2023-03-18T07:24:58;93592.91;;;7.50;100.00
24610;BME280;12758;47.890;11.694;2023-03-18T07:27:25;93598.34;;;7.59;100.00
24610;BME280;12758;47.890;11.694;2023-03-18T07:29:52;93597.22;;;7.60;100.00
24610;BME280;12758;47.890;11.694;2023-03-18T07:32:18;93602.16;;;7.58;100.00
24610;BME280;12758;47.890;11.694;2023-03-18T07:34:44;93594.97;;;7.44;100.00
24610;BME280;12758;47.890;11.694;2023-03-18T07:37:13;93591.81;;;7.42;100.00
24610;BME280;12758;47.890;11.694;2023-03-18T07:39:39;93594.63;;;7.37;100.00
24610;BME280;12758;47.890;11.694;2023-03-18T07:42:05;93598.28;;;7.41;100.00
24610;BME280;12758;47.890;11.694;2023-03-18T07:44:31;93595.31;;;7.52;100.00
24610;BME280;12758;47.890;11.694;2023-03-18T07:46:57;93591.63;;;7.47;100.00
24610;BME280;12758;47.890;11.694;2023-03-18T07:49:24;93600.38;;;7.44;100.00
24610;BME280;12758;47.890;11.694;2023-03-18T07:51:50;93603.22;;;7.39;100.00
24610;BME280;12758;47.890;11.694;2023-03-18T07:54:17;93598.94;;;7.38;100.00
24610;BME280;12758;47.890;11.694;2023-03-18T07:56:44;93598.78;;;7.43;100.00
24610;BME280;12758;47.890;11.694;2023-03-18T07:59:11;93596.75;;;7.49;100.00
24610;BME280;12758;47.890;11.694;2023-03-18T08:01:37;93604.38;;;7.56;100.00
24610;BME280;12758;47.890;11.694;2023-03-18T08:04:04;93601.84;;;7.59;100.00
24610;BME280;12758;47.890;11.694;2023-03-18T08:06:30;93602.00;;;7.63;100.00
24610;BME280;12758;47.890;11.694;2023-03-18T08:08:57;93602.19;;;7.84;100.00
24610;BME280;12758;47.890;11.694;2023-03-18T08:11:23;93597.91;;;7.91;100.00
24610;BME280;12758;47.890;11.694;2023-03-18T08:13:50;93603.78;;;7.93;100.00
24610;BME280;12758;47.890;11.694;2023-03-18T08:16:16;93613.47;;;8.12;100.00
24610;BME280;12758;47.890;11.694;2023-03-18T08:18:43;93617.63;;;8.35;100.00
24610;BME280;12758;47.890;11.694;2023-03-18T08:21:09;93604.28;;;8.48;100.00
24610;BME280;12758;47.890;11.694;2023-03-18T08:23:35;93613.31;;;8.60;100.00
24610;BME280;12758;47.890;11.694;2023-03-18T08:26:01;93604.72;;;8.58;100.00
24610;BME280;12758;47.890;11.694;2023-03-18T08:28:28;93607.56;;;8.71;100.00
24610;BME280;12758;47.890;11.694;2023-03-18T08:30:54;93605.94;;;8.70;100.00
24610;BME280;12758;47.890;11.694;2023-03-18T08:33:21;93610.72;;;8.73;100.00
24610;BME280;12758;47.890;11.694;2023-03-18T08:35:47;93598.25;;;8.89;100.00
24610;BME280;12758;47.890;11.694;2023-03-18T08:38:14;93604.56;;;9.10;100.00
24610;BME280;12758;47.890;11.694;2023-03-18T08:40:40;93601.63;;;9.24;100.00
24610;BME280;12758;47.890;11.694;2023-03-18T08:43:06;93599.47;;;9.09;100.00
24610;BME280;12758;47.890;11.694;2023-03-18T08:45:35;93587.16;;;9.20;100.00
24610;BME280;12758;47.890;11.694;2023-03-18T08:48:01;93595.38;;;9.32;100.00
24610;BME280;12758;47.890;11.694;2023-03-18T08:50:27;93593.47;;;9.33;100.00
24610;BME280;12758;47.890;11.694;2023-03-18T08:52:55;93610.69;;;9.28;100.00
24610;BME280;12758;47.890;11.694;2023-03-18T08:55:22;93600.44;;;9.43;100.00
24610;BME280;12758;47.890;11.694;2023-03-18T08:57:48;93594.66;;;9.74;100.00
24610;BME280;12758;47.890;11.694;2023-03-18T09:00:15;93596.19;;;10.25;100.00
24610;BME280;12758;47.890;11.694;2023-03-18T09:02:42;93588.34;;;10.33;100.00
24610;BME280;12758;47.890;11.694;2023-03-18T09:05:09;93591.44;;;10.22;100.00
24610;BME280;12758;47.890;11.694;2023-03-18T09:07:35;93596.25;;;10.59;100.00
24610;BME280;12758;47.890;11.694;2023-03-18T09:10:01;93596.78;;;10.52;100.00
24610;BME280;12758;47.890;11.694;2023-03-18T09:12:27;93585.50;;;10.50;100.00
24610;BME280;12758;47.890;11.694;2023-03-18T09:14:53;93589.97;;;10.46;100.00
24610;BME280;12758;47.890;11.694;2023-03-18T09:17:19;93595.69;;;10.53;100.00
24610;BME280;12758;47.890;11.694;2023-03-18T09:19:46;93583.22;;;10.85;100.00
24610;BME280;12758;47.890;11.694;2023-03-18T09:22:12;93580.22;;;10.66;100.00
24610;BME280;12758;47.890;11.694;2023-03-18T09:24:38;93578.56;;;10.86;100.00
24610;BME280;12758;47.890;11.694;2023-03-18T09:27:05;93582.69;;;11.16;100.00
24610;BME280;12758;47.890;11.694;2023-03-18T09:29:31;93584.06;;;11.35;100.00
24610;BME280;12758;47.890;11.694;2023-03-18T09:31:57;93599.22;;;11.48;100.00
24610;BME280;12758;47.890;11.694;2023-03-18T09:34:23;93593.47;;;11.50;100.00
24610;BME280;12758;47.890;11.694;2023-03-18T09:36:50;93588.25;;;11.45;100.00
24610;BME280;12758;47.890;11.694;2023-03-18T09:39:16;93594.78;;;11.68;100.00
24610;BME280;12758;47.890;11.694;2023-03-18T09:41:45;93588.47;;;11.52;100.00
24610;BME280;12758;47.890;11.694;2023-03-18T09:44:21;93595.84;;;11.63;100.00
24610;BME280;12758;47.890;11.694;2023-03-18T09:47:06;93590.63;;;11.46;100.00
24610;BME280;12758;47.890;11.694;2023-03-18T09:49:44;93590.72;;;11.62;100.00
24610;BME280;12758;47.890;11.694;2023-03-18T09:52:17;93598.53;;;11.51;98.11
24610;BME280;12758;47.890;11.694;2023-03-18T09:54:48;93600.25;;;11.43;100.00
24610;BME280;12758;47.890;11.694;2023-03-18T09:57:18;93598.31;;;11.19;100.00
24610;BME280;12758;47.890;11.694;2023-03-18T09:59:49;93594.59;;;11.24;100.00
24610;BME280;12758;47.890;11.694;2023-03-18T10:02:21;93594.94;;;11.59;90.26
24610;BME280;12758;47.890;11.694;2023-03-18T10:04:49;93593.78;;;11.48;99.32
24610;BME280;12758;47.890;11.694;2023-03-18T10:07:21;93588.31;;;10.99;100.00
24610;BME280;12758;47.890;11.694;2023-03-18T10:09:50;93581.28;;;10.86;100.00
24610;BME280;12758;47.890;11.694;2023-03-18T10:12:23;93578.44;;;10.94;100.00
24610;BME280;12758;47.890;11.694;2023-03-18T10:15:00;93583.34;;;11.13;100.00
24610;BME280;12758;47.890;11.694;2023-03-18T10:17:30;93582.88;;;10.99;100.00
24610;BME280;12758;47.890;11.694;2023-03-18T10:20:00;93590.41;;;11.51;95.80
24610;BME280;12758;47.890;11.694;2023-03-18T10:22:42;93585.75;;;11.88;83.89
24610;BME280;12758;47.890;11.694;2023-03-18T10:25:17;93585.53;;;12.34;89.86
24610;BME280;12758;47.890;11.694;2023-03-18T10:27:52;93595.09;;;12.16;88.75
24610;BME280;12758;47.890;11.694;2023-03-18T10:30:31;93590.38;;;11.39;89.39
24610;BME280;12758;47.890;11.694;2023-03-18T10:33:04;93589.03;;;11.45;88.21
24610;BME280;12758;47.890;11.694;2023-03-18T10:35:37;93580.88;;;11.21;89.96
24610;BME280;12758;47.890;11.694;2023-03-18T10:38:11;93585.06;;;11.42;86.64
24610;BME280;12758;47.890;11.694;2023-03-18T10:40:40;93586.75;;;11.72;94.36
24610;BME280;12758;47.890;11.694;2023-03-18T10:43:11;93586.66;;;11.93;87.26
24610;BME280;12758;47.890;11.694;2023-03-18T10:45:39;93585.16;;;11.71;85.40
24610;BME280;12758;47.890;11.694;2023-03-18T10:48:10;93576.59;;;11.56;89.61
24610;BME280;12758;47.890;11.694;2023-03-18T10:50:41;93572.03;;;11.73;89.98
24610;BME280;12758;47.890;11.694;2023-03-18T10:53:13;93569.06;;;11.78;88.41
24610;BME280;12758;47.890;11.694;2023-03-18T10:55:48;93558.59;;;12.17;89.20
24610;BME280;12758;47.890;11.694;2023-03-18T10:58:17;93572.47;;;11.87;88.03
24610;BME280;12758;47.890;11.694;2023-03-18T11:00:43;93565.69;;;11.93;91.55
24610;BME280;12758;47.890;11.694;2023-03-18T11:03:17;93556.13;;;12.11;85.00
24610;BME280;12758;47.890;11.694;2023-03-18T11:05:44;93566.19;;;12.23;90.46
24610;BME280;12758;47.890;11.694;2023-03-18T11:08:28;93558.59;;;12.17;90.67
24610;BME280;12758;47.890;11.694;2023-03-18T11:10:57;93563.16;;;12.41;89.07
24610;BME280;12758;47.890;11.694;2023-03-18T11:13:23;93553.22;;;11.92;96.40
24610;BME280;12758;47.890;11.694;2023-03-18T11:15:51;93552.56;;;12.51;96.40
24610;BME280;12758;47.890;11.694;2023-03-18T11:18:21;93552.75;;;11.90;98.10
24610;BME280;12758;47.890;11.694;2023-03-18T11:20:50;93547.53;;;11.97;94.57
24610;BME280;12758;47.890;11.694;2023-03-18T11:23:30;93551.56;;;12.16;93.28
24610;BME280;12758;47.890;11.694;2023-03-18T11:26:18;93537.91;;;12.28;92.36
24610;BME280;12758;47.890;11.694;2023-03-18T11:28:45;93537.91;;;12.28;90.69
24610;BME280;12758;47.890;11.694;2023-03-18T11:31:15;93539.72;;;12.36;85.99
24610;BME280;12758;47.890;11.694;2023-03-18T11:33:42;93532.66;;;12.35;82.80
24610;BME280;12758;47.890;11.694;2023-03-18T11:36:12;93533.44;;;12.35;87.30
24610;BME280;12758;47.890;11.694;2023-03-18T11:38:39;93524.06;;;12.33;87.18
24610;BME280;12758;47.890;11.694;2023-03-18T11:41:08;93514.25;;;12.44;90.71
24610;BME280;12758;47.890;11.694;2023-03-18T11:43:38;93517.63;;;12.53;94.24
24610;BME280;12758;47.890;11.694;2023-03-18T11:46:05;93517.63;;;12.53;88.78
24610;BME280;12758;47.890;11.694;2023-03-18T11:48:33;93510.94;;;12.51;85.22
24610;BME280;12758;47.890;11.694;2023-03-18T11:51:09;93506.03;;;12.56;84.93
24610;BME280;12758;47.890;11.694;2023-03-18T11:53:48;93501.63;;;12.68;82.87
24610;BME280;12758;47.890;11.694;2023-03-18T11:56:21;93500.06;;;12.67;83.15
24610;BME280;12758;47.890;11.694;2023-03-18T11:59:24;93495.94;;;12.73;86.93
24610;BME280;12758;47.890;11.694;2023-03-18T12:01:59;93494.09;;;12.77;81.66
24610;BME280;12758;47.890;11.694;2023-03-18T12:04:38;93484.69;;;12.74;81.90
24610;BME280;12758;47.890;11.694;2023-03-18T12:07:35;93484.00;;;12.93;86.19
24610;BME280;12758;47.890;11.694;2023-03-18T12:10:12;93479.44;;;12.81;91.88
24610;BME280;12758;47.890;11.694;2023-03-18T12:12:46;93485.16;;;12.92;86.06
24610;BME280;12758;47.890;11.694;2023-03-18T12:15:20;93476.72;;;12.97;82.05
24610;BME280;12758;47.890;11.694;2023-03-18T12:17:53;93472.69;;;12.91;80.80
24610;BME280;12758;47.890;11.694;2023-03-18T12:23:38;93458.78;;;12.96;82.51
24610;BME280;12758;47.890;11.694;2023-03-18T12:26:10;93469.94;;;13.07;81.08
24610;BME280;12758;47.890;11.694;2023-03-18T12:28:47;93455.78;;;13.01;78.49
24610;BME280;12758;47.890;11.694;2023-03-18T12:31:32;93468.25;;;13.02;82.11
24610;BME280;12758;47.890;11.694;2023-03-18T12:34:01;93468.63;;;13.17;84.09
24610;BME280;12758;47.890;11.694;2023-03-18T12:36:33;93464.28;;;13.16;88.49
24610;BME280;12758;47.890;11.694;2023-03-18T12:39:15;93464.66;;;13.14;84.57
24610;BME280;12758;47.890;11.694;2023-03-18T12:41:47;93471.75;;;13.19;86.40
24610;BME280;12758;47.890;11.694;2023-03-18T12:44:27;93470.28;;;13.05;84.07
24610;BME280;12758;47.890;11.694;2023-03-18T12:47:00;93466.84;;;13.09;83.59
24610;BME280;12758;47.890;11.694;2023-03-18T12:49:32;93471.16;;;13.25;78.17
24610;BME280;12758;47.890;11.694;2023-03-18T12:52:01;93464.75;;;13.34;80.24
24610;BME280;12758;47.890;11.694;2023-03-18T12:54:31;93467.88;;;13.51;77.58
24610;BME280;12758;47.890;11.694;2023-03-18T12:57:00;93475.63;;;13.49;79.92
24610;BME280;12758;47.890;11.694;2023-03-18T12:59:30;93470.47;;;13.64;80.30